^^
Station Historical Data
Daily Summary for January 13, 2019 Units:  Metric    English   Both
« Previous Day
Next Day »
Daily Weekly Monthly Yearly Custom
  High: Low: Average:
Temperature: -17.8 °C -22.7 °C -15.1 °C
Dew Point: -17.8 °C -24.9 °C -17.3 °C
Humidity: Humidity % 76 % 83 %
Wind Speed: 0 km/h 0 km/h 0 km/h
Wind Gust: 0 km/h - -
Wind:- - WNW
Pressure: 0 hPa 1030.4 hPa -
Precipitation: 0 mm    
Historical Graphs
 
 
Tabular Data for January 13, 2019
Time Temperature Dew Point Pressure Wind Wind Speed Wind Gust Humidity Rainfall Rate (Hourly) solar Conditions
-17.8 °C -17.8 °C 0 hPa Calm     Humidity % 0 mm SoftwareType W/m2 Conditions
00:00 -22.5 °C -24.7 °C 1035.4 hPa Calm     82 % 0 mm WeatherDisplay:10.37 W/m2 FEW
00:05 -22.6 °C -24.9 °C 1035.4 hPa Calm   1.6 km/h 81 % 0 mm WeatherDisplay:10.37 W/m2 FEW
00:10 -22.6 °C -24.8 °C 1035.4 hPa Calm   1.6 km/h 82 % 0 mm WeatherDisplay:10.37 W/m2 FEW
00:15 -22.7 °C -24.9 °C 1035.1 hPa Calm     82 % 0 mm WeatherDisplay:10.37 W/m2 FEW
00:20 -22.7 °C -24.9 °C 1035.1 hPa Calm   3.2 km/h 82 % 0 mm WeatherDisplay:10.37 W/m2 FEW
00:25 -22.7 °C -24.9 °C 1035.1 hPa Calm   3.2 km/h 82 % 0 mm WeatherDisplay:10.37 W/m2 FEW
00:30 -22.7 °C -24.9 °C 1035.1 hPa Calm   3.2 km/h 82 % 0 mm WeatherDisplay:10.37 W/m2 FEW
00:35 -22.7 °C -24.9 °C 1035.1 hPa Calm   1.6 km/h 82 % 0 mm WeatherDisplay:10.37 W/m2 FEW
00:40 -22.7 °C -24.9 °C 1035.1 hPa Calm   1.6 km/h 82 % 0 mm WeatherDisplay:10.37 W/m2 FEW
00:45 -22.7 °C -24.8 °C 1035.1 hPa Calm   3.2 km/h 83 % 0 mm WeatherDisplay:10.37 W/m2 FEW
00:50 -22.7 °C -24.7 °C 1035.1 hPa Calm   1.6 km/h 83 % 0 mm WeatherDisplay:10.37 W/m2 FEW
00:55 -22.6 °C -24.7 °C 1034.8 hPa Calm   3.2 km/h 83 % 0 mm WeatherDisplay:10.37 W/m2 FEW
01:00 -22.5 °C -24.6 °C 1035.1 hPa Calm   3.2 km/h 83 % 0 mm WeatherDisplay:10.37 W/m2 FEW
01:05 -22.4 °C -24.4 °C 1035.1 hPa Calm   3.2 km/h 84 % 0 mm WeatherDisplay:10.37 W/m2 FEW
01:10 -22.3 °C -24.3 °C 1035.1 hPa Calm   1.6 km/h 84 % 0 mm WeatherDisplay:10.37 W/m2 FEW
01:15 -22.2 °C -24.2 °C 1035.1 hPa Calm   1.6 km/h 84 % 0 mm WeatherDisplay:10.37 W/m2 FEW
01:20 -22.1 °C -24 °C 1035.1 hPa Calm   1.6 km/h 84 % 0 mm WeatherDisplay:10.37 W/m2 FEW
01:25 -21.9 °C -23.8 °C 1035.1 hPa Calm   1.6 km/h 85 % 0 mm WeatherDisplay:10.37 W/m2 FEW
01:30 -21.8 °C -23.7 °C 1035.1 hPa Calm   3.2 km/h 85 % 0 mm WeatherDisplay:10.37 W/m2 FEW
01:35 -21.7 °C -23.6 °C 1035.1 hPa Calm   3.2 km/h 85 % 0 mm WeatherDisplay:10.37 W/m2 FEW
01:40 -21.6 °C -23.4 °C 1035.1 hPa NNW 1.6 km/h 3.2 km/h 85 % 0 mm WeatherDisplay:10.37 W/m2 FEW
01:45 -21.4 °C -23.3 °C 1035.1 hPa Calm   1.6 km/h 85 % 0 mm WeatherDisplay:10.37 W/m2 FEW
01:50 -21.3 °C -23.2 °C 1035.1 hPa Calm   3.2 km/h 85 % 0 mm WeatherDisplay:10.37 W/m2 FEW
01:55 -21.3 °C -23.2 °C 1035.1 hPa Calm   1.6 km/h 85 % 0 mm WeatherDisplay:10.37 W/m2 FEW
02:00 -21.2 °C -23.1 °C 1035.4 hPa Calm   1.6 km/h 85 % 0 mm WeatherDisplay:10.37 W/m2 FEW
02:05 -21.1 °C -22.8 °C 1035.4 hPa Calm   1.6 km/h 86 % 0 mm WeatherDisplay:10.37 W/m2 FEW
02:10 -21 °C -22.9 °C 1035.4 hPa Calm     85 % 0 mm WeatherDisplay:10.37 W/m2 FEW
02:15 -20.9 °C -22.6 °C 1035.4 hPa Calm     86 % 0 mm WeatherDisplay:10.37 W/m2 FEW
02:20 -20.8 °C -22.6 °C 1035.8 hPa Calm     86 % 0 mm WeatherDisplay:10.37 W/m2 FEW
02:25 -20.8 °C -22.5 °C 1035.4 hPa Calm     86 % 0 mm WeatherDisplay:10.37 W/m2 FEW
02:30 -20.7 °C -22.4 °C 1035.4 hPa Calm     86 % 0 mm WeatherDisplay:10.37 W/m2 FEW
02:35 -20.6 °C -22.3 °C 1035.8 hPa Calm     86 % 0 mm WeatherDisplay:10.37 W/m2 FEW
02:40 -20.6 °C -22.3 °C 1035.8 hPa Calm     86 % 0 mm WeatherDisplay:10.37 W/m2 FEW
02:45 -20.4 °C -22.2 °C 1035.8 hPa Calm     86 % 0 mm WeatherDisplay:10.37 W/m2 FEW
02:50 -20.3 °C -21.9 °C 1035.8 hPa Calm     87 % 0 mm WeatherDisplay:10.37 W/m2 FEW
02:55 -20.2 °C -21.8 °C 1035.8 hPa Calm     87 % 0 mm WeatherDisplay:10.37 W/m2 FEW
03:00 -20 °C -21.6 °C 1035.8 hPa Calm   1.6 km/h 87 % 0 mm WeatherDisplay:10.37 W/m2 FEW
03:05 -19.9 °C -21.5 °C 1035.8 hPa Calm     87 % 0 mm WeatherDisplay:10.37 W/m2 FEW
03:10 -19.7 °C -21.3 °C 1035.8 hPa Calm     87 % 0 mm WeatherDisplay:10.37 W/m2 FEW
03:15 -19.6 °C -21.2 °C 1035.4 hPa Calm     87 % 0 mm WeatherDisplay:10.37 W/m2 FEW
03:20 -19.5 °C -21.1 °C 1035.4 hPa Calm     87 % 0 mm WeatherDisplay:10.37 W/m2 FEW
03:25 -19.4 °C -21 °C 1035.4 hPa Calm     87 % 0 mm WeatherDisplay:10.37 W/m2 FEW
03:30 -19.3 °C -20.9 °C 1035.4 hPa Calm     87 % 0 mm WeatherDisplay:10.37 W/m2 FEW
03:35 -19.1 °C -20.7 °C 1035.4 hPa Calm     87 % 0 mm WeatherDisplay:10.37 W/m2 FEW
03:40 -19 °C -20.6 °C 1035.1 hPa Calm     87 % 0 mm WeatherDisplay:10.37 W/m2 FEW
03:45 -18.9 °C -20.6 °C 1035.1 hPa Calm     87 % 0 mm WeatherDisplay:10.37 W/m2 FEW
03:50 -18.9 °C -20.5 °C 1035.1 hPa Calm     87 % 0 mm WeatherDisplay:10.37 W/m2 FEW
03:55 -18.8 °C -20.4 °C 1034.8 hPa Calm     87 % 0 mm WeatherDisplay:10.37 W/m2 FEW
04:05 -18.6 °C -20.2 °C 1034.8 hPa Calm     87 % 0 mm WeatherDisplay:10.37 W/m2 FEW
04:10 -18.6 °C -20.2 °C 1034.8 hPa Calm     87 % 0 mm WeatherDisplay:10.37 W/m2 FEW
04:15 -18.4 °C -20.1 °C 1034.8 hPa Calm     87 % 0 mm WeatherDisplay:10.37 W/m2 FEW
04:20 -18.3 °C -20 °C 1034.8 hPa Calm     87 % 0 mm WeatherDisplay:10.37 W/m2 FEW
04:25 -18.3 °C -19.9 °C 1034.8 hPa Calm     87 % 0 mm WeatherDisplay:10.37 W/m2 FEW
04:30 -18.2 °C -19.8 °C 1034.8 hPa Calm     87 % 0 mm WeatherDisplay:10.37 W/m2 FEW
04:35 -18.1 °C -19.7 °C 1034.8 hPa Calm     87 % 0 mm WeatherDisplay:10.37 W/m2 FEW
04:40 -18 °C -19.6 °C 1034.8 hPa Calm     87 % 0 mm WeatherDisplay:10.37 W/m2 FEW
04:45 -17.8 °C -19.5 °C 1035.1 hPa Calm     87 % 0 mm WeatherDisplay:10.37 W/m2 FEW
04:50 -17.8 °C -19.3 °C 1034.8 hPa Calm     88 % 0 mm WeatherDisplay:10.37 W/m2 FEW
04:55 -17.6 °C -19.1 °C 1035.1 hPa Calm     88 % 0 mm WeatherDisplay:10.37 W/m2 FEW
05:00 -17.6 °C -19.1 °C 1035.1 hPa Calm     88 % 0 mm WeatherDisplay:10.37 W/m2 FEW
05:05 -17.5 °C -19 °C 1035.1 hPa Calm     88 % 0 mm WeatherDisplay:10.37 W/m2 FEW
05:10 -17.3 °C -18.8 °C 1035.1 hPa Calm     88 % 0 mm WeatherDisplay:10.37 W/m2 FEW
05:15 -17.3 °C -18.8 °C 1035.1 hPa Calm     88 % 0 mm WeatherDisplay:10.37 W/m2 FEW
05:20 -17.2 °C -18.7 °C 1034.8 hPa Calm     88 % 0 mm WeatherDisplay:10.37 W/m2 FEW
05:25 -17.1 °C -18.6 °C 1034.8 hPa Calm     88 % 0 mm WeatherDisplay:10.37 W/m2 FEW
05:30 -17 °C -18.5 °C 1035.1 hPa Calm     88 % 0 mm WeatherDisplay:10.37 W/m2 FEW
05:35 -16.9 °C -18.4 °C 1035.1 hPa Calm     88 % 0 mm WeatherDisplay:10.37 W/m2 FEW
05:40 -16.8 °C -18.3 °C 1035.1 hPa Calm     88 % 0 mm WeatherDisplay:10.37 W/m2 FEW
05:45 -16.7 °C -18.2 °C 1035.1 hPa Calm     88 % 0 mm WeatherDisplay:10.37 W/m2 FEW
05:50 -16.7 °C -18.2 °C 1035.1 hPa Calm     88 % 0 mm WeatherDisplay:10.37 W/m2 FEW
05:55 -16.6 °C -18.1 °C 1035.1 hPa Calm     88 % 0 mm WeatherDisplay:10.37 W/m2 FEW
06:00 -16.6 °C -18.1 °C 1035.1 hPa Calm     88 % 0 mm WeatherDisplay:10.37 W/m2 FEW
06:05 -16.5 °C -18 °C 1035.1 hPa Calm     88 % 0 mm WeatherDisplay:10.37 W/m2 FEW
06:10 -16.4 °C -17.9 °C 1035.1 hPa Calm     88 % 0 mm WeatherDisplay:10.37 W/m2 FEW
06:15 -16.4 °C -17.9 °C 1035.1 hPa Calm     88 % 0 mm WeatherDisplay:10.37 W/m2 FEW
06:20 -16.3 °C -17.8 °C 1035.1 hPa Calm     88 % 0 mm WeatherDisplay:10.37 W/m2 FEW
06:25 -16.3 °C -17.8 °C 1035.1 hPa Calm     88 % 0 mm WeatherDisplay:10.37 W/m2 FEW
06:30 -16.3 °C -17.8 °C 1035.1 hPa Calm     88 % 0 mm WeatherDisplay:10.37 W/m2 FEW
06:35 -16.3 °C -17.8 °C 1035.1 hPa Calm     88 % 0 mm WeatherDisplay:10.37 W/m2 FEW
06:40 -16.2 °C -17.7 °C 1035.1 hPa Calm     88 % 0 mm WeatherDisplay:10.37 W/m2 FEW
06:45 -16.2 °C -17.7 °C 1035.1 hPa Calm     88 % 0 mm WeatherDisplay:10.37 W/m2 FEW
06:50 -16.2 °C -17.7 °C 1035.1 hPa Calm     88 % 0 mm WeatherDisplay:10.37 W/m2 FEW
06:55 -16.2 °C -17.7 °C 1035.1 hPa Calm     88 % 0 mm WeatherDisplay:10.37 W/m2 FEW
07:00 -16.1 °C -17.6 °C 1035.1 hPa Calm     88 % 0 mm WeatherDisplay:10.37 W/m2 FEW
07:05 -16.1 °C -17.6 °C 1035.1 hPa Calm     88 % 0 mm WeatherDisplay:10.37 W/m2 FEW
07:10 -16.1 °C -17.6 °C 1035.1 hPa Calm     88 % 0 mm WeatherDisplay:10.37 W/m2 FEW
07:15 -16.1 °C -17.6 °C 1035.1 hPa Calm     88 % 0 mm WeatherDisplay:10.37 W/m2 FEW
07:20 -16 °C -17.6 °C 1035.1 hPa Calm     88 % 0 mm WeatherDisplay:10.37 W/m2 FEW
07:25 -16 °C -17.6 °C 1035.1 hPa Calm     88 % 0 mm WeatherDisplay:10.37 W/m2 FEW
07:30 -15.9 °C -17.5 °C 1035.1 hPa Calm     88 % 0 mm WeatherDisplay:10.37 W/m2 FEW
07:35 -15.9 °C -17.4 °C 1035.1 hPa Calm     88 % 0 mm WeatherDisplay:10.37 W/m2 FEW
07:40 -15.9 °C -17.4 °C 1035.1 hPa Calm     88 % 0 mm WeatherDisplay:10.37 W/m2 FEW
07:45 -15.8 °C -17.4 °C 1035.1 hPa Calm     88 % 0 mm WeatherDisplay:10.37 W/m2 FEW
07:50 -15.8 °C -17.3 °C 1035.4 hPa Calm     88 % 0 mm WeatherDisplay:10.37 W/m2 FEW
07:55 -15.8 °C -17.3 °C 1035.1 hPa Calm     88 % 0 mm WeatherDisplay:10.37 W/m2 FEW
08:00 -15.7 °C -17.3 °C 1035.1 hPa Calm     88 % 0 mm WeatherDisplay:10.37 W/m2 FEW
08:05 -15.7 °C -17.3 °C 1035.1 hPa Calm     88 % 0 mm WeatherDisplay:10.37 W/m2 FEW
08:10 -15.7 °C -17.2 °C 1035.1 hPa Calm     88 % 0 mm WeatherDisplay:10.37 W/m2 FEW
08:15 -15.6 °C -17.2 °C 1035.1 hPa Calm     88 % 0 mm WeatherDisplay:10.37 W/m2 FEW
08:20 -15.5 °C -17.1 °C 1035.1 hPa Calm     88 % 0 mm WeatherDisplay:10.37 W/m2 FEW
08:25 -15.4 °C -17 °C 1035.1 hPa Calm     88 % 0 mm WeatherDisplay:10.37 W/m2 FEW
08:30 -15.3 °C -16.9 °C 1035.1 hPa Calm     88 % 0 mm WeatherDisplay:10.37 W/m2 FEW
08:35 -15.3 °C -16.8 °C 1035.1 hPa Calm     88 % 0 mm WeatherDisplay:10.37 W/m2 FEW
08:40 -15.2 °C -16.7 °C 1035.1 hPa Calm     88 % 0 mm WeatherDisplay:10.37 W/m2 FEW
08:45 -15.1 °C -16.7 °C 1035.4 hPa Calm     88 % 0 mm WeatherDisplay:10.37 W/m2 FEW
08:50 -15.1 °C -16.6 °C 1035.4 hPa Calm     88 % 0 mm WeatherDisplay:10.37 W/m2 FEW
08:55 -14.9 °C -16.3 °C 1035.4 hPa Calm     89 % 0 mm WeatherDisplay:10.37 W/m2 FEW
09:00 -14.8 °C -16.2 °C 1035.4 hPa Calm     89 % 0 mm WeatherDisplay:10.37 W/m2 FEW
09:05 -14.7 °C -16.1 °C 1035.4 hPa Calm     89 % 0 mm WeatherDisplay:10.37 W/m2 FEW
09:10 -14.6 °C -15.9 °C 1035.4 hPa Calm     89 % 0 mm WeatherDisplay:10.37 W/m2 FEW
09:15 -14.4 °C -15.8 °C 1035.4 hPa Calm     89 % 0 mm WeatherDisplay:10.37 W/m2 FEW
09:20 -14.3 °C -15.7 °C 1035.8 hPa Calm     89 % 0 mm WeatherDisplay:10.37 W/m2 FEW
09:25 -14.2 °C -15.6 °C 1035.8 hPa Calm     89 % 0 mm WeatherDisplay:10.37 W/m2 FEW
09:30 -14.1 °C -15.4 °C 1035.8 hPa Calm     89 % 0 mm WeatherDisplay:10.37 W/m2 FEW
09:35 -13.9 °C -15.3 °C 1035.8 hPa Calm     89 % 0 mm WeatherDisplay:10.37 W/m2 FEW
09:40 -13.7 °C -15.1 °C 1035.4 hPa Calm     89 % 0 mm WeatherDisplay:10.37 W/m2 FEW
09:45 -13.5 °C -14.9 °C 1035.8 hPa Calm     89 % 0 mm WeatherDisplay:10.37 W/m2 FEW
09:50 -13.4 °C -14.8 °C 1035.8 hPa Calm     89 % 0 mm WeatherDisplay:10.37 W/m2 FEW
09:55 -13.2 °C -14.7 °C 1035.8 hPa Calm     89 % 0 mm WeatherDisplay:10.37 W/m2 FEW
10:00 -13.1 °C -14.5 °C 1035.8 hPa Calm     89 % 0 mm WeatherDisplay:10.37 W/m2 FEW
10:05 -12.9 °C -14.5 °C 1035.8 hPa Calm     88 % 0 mm WeatherDisplay:10.37 W/m2 FEW
10:10 -12.8 °C -14.3 °C 1035.8 hPa Calm     88 % 0 mm WeatherDisplay:10.37 W/m2 FEW
10:15 -12.6 °C -14.2 °C 1035.8 hPa Calm     88 % 0 mm WeatherDisplay:10.37 W/m2 FEW
10:20 -12.5 °C -14.1 °C 1035.8 hPa Calm     88 % 0 mm WeatherDisplay:10.37 W/m2 FEW
10:25 -12.3 °C -14.1 °C 1035.8 hPa Calm   1.6 km/h 87 % 0 mm WeatherDisplay:10.37 W/m2 FEW
10:30 -12.2 °C -13.9 °C 1035.8 hPa Calm   1.6 km/h 87 % 0 mm WeatherDisplay:10.37 W/m2 FEW
10:35 -12 °C -13.8 °C 1035.4 hPa Calm   1.6 km/h 86 % 0 mm WeatherDisplay:10.37 W/m2 FEW
10:40 -11.8 °C -13.7 °C 1035.4 hPa Calm     86 % 0 mm WeatherDisplay:10.37 W/m2 FEW
10:45 -11.7 °C -13.7 °C 1035.4 hPa Calm   6.4 km/h 85 % 0 mm WeatherDisplay:10.37 W/m2 FEW
10:50 -11.5 °C -13.5 °C 1035.4 hPa Calm     85 % 0 mm WeatherDisplay:10.37 W/m2 FEW
10:55 -11.4 °C -13.6 °C 1035.1 hPa Calm   3.2 km/h 84 % 0 mm WeatherDisplay:10.37 W/m2 FEW
11:00 -11.2 °C -13.4 °C 1035.1 hPa Calm   1.6 km/h 84 % 0 mm WeatherDisplay:10.37 W/m2 FEW
11:05 -11.2 °C -13.5 °C 1035.1 hPa Calm   3.2 km/h 83 % 0 mm WeatherDisplay:10.37 W/m2 FEW
11:10 -11.1 °C -13.4 °C 1034.8 hPa Calm   1.6 km/h 83 % 0 mm WeatherDisplay:10.37 W/m2 FEW
11:15 -10.9 °C -13.4 °C 1034.8 hPa Calm   1.6 km/h 82 % 0 mm WeatherDisplay:10.37 W/m2 FEW
11:20 -10.8 °C -13.3 °C 1034.8 hPa Calm   1.6 km/h 82 % 0 mm WeatherDisplay:10.37 W/m2 FEW
11:25 -10.8 °C -13.4 °C 1034.8 hPa NE 1.6 km/h 3.2 km/h 81 % 0 mm WeatherDisplay:10.37 W/m2 FEW
11:30 -10.7 °C -13.5 °C 1034.8 hPa Calm     80 % 0 mm WeatherDisplay:10.37 W/m2 FEW
11:35 -10.7 °C -13.4 °C 1034.4 hPa Calm     80 % 0 mm WeatherDisplay:10.37 W/m2 FEW
11:40 -10.6 °C -13.6 °C 1034.4 hPa Calm     79 % 0 mm WeatherDisplay:10.37 W/m2 FEW
11:45 -10.6 °C -13.5 °C 1034.4 hPa Calm     79 % 0 mm WeatherDisplay:10.37 W/m2 FEW
11:50 -10.5 °C -13.4 °C 1034.4 hPa Calm     79 % 0 mm WeatherDisplay:10.37 W/m2 FEW
11:55 -10.5 °C -13.4 °C 1034.4 hPa Calm     79 % 0 mm WeatherDisplay:10.37 W/m2 FEW
12:00 -10.5 °C -13.4 °C 1034.4 hPa Calm   4.8 km/h 79 % 0 mm WeatherDisplay:10.37 W/m2 FEW
12:05 -10.4 °C -13.6 °C 1034.4 hPa Calm   3.2 km/h 78 % 0 mm WeatherDisplay:10.37 W/m2 FEW
12:10 -10.4 °C -13.5 °C 1034.1 hPa Calm   4.8 km/h 78 % 0 mm WeatherDisplay:10.37 W/m2 FEW
12:15 -10.4 °C -13.6 °C 1034.1 hPa Calm   3.2 km/h 78 % 0 mm WeatherDisplay:10.37 W/m2 FEW
12:20 -10.4 °C -13.6 °C 1034.1 hPa North 3.2 km/h 6.4 km/h 78 % 0 mm WeatherDisplay:10.37 W/m2 FEW
12:25 -10.6 °C -13.7 °C 1034.1 hPa Calm   9.7 km/h 78 % 0 mm WeatherDisplay:10.37 W/m2 FEW
12:30 -10.6 °C -13.7 °C 1034.1 hPa Calm   4.8 km/h 78 % 0 mm WeatherDisplay:10.37 W/m2 FEW
12:35 -10.7 °C -13.7 °C 1034.1 hPa NW 1.6 km/h 4.8 km/h 78 % 0 mm WeatherDisplay:10.37 W/m2 FEW
12:40 -10.7 °C -13.8 °C 1034.1 hPa NW 1.6 km/h 4.8 km/h 78 % 0 mm WeatherDisplay:10.37 W/m2 FEW
12:45 -10.7 °C -13.8 °C 1034.1 hPa Calm   1.6 km/h 78 % 0 mm WeatherDisplay:10.37 W/m2 FEW
12:50 -10.7 °C -13.8 °C 1033.7 hPa NW 3.2 km/h 6.4 km/h 78 % 0 mm WeatherDisplay:10.37 W/m2 FEW
12:55 -10.7 °C -13.8 °C 1033.7 hPa NW 1.6 km/h 8 km/h 78 % 0 mm WeatherDisplay:10.37 W/m2 FEW
13:00 -10.7 °C -13.8 °C 1033.7 hPa Calm   1.6 km/h 78 % 0 mm WeatherDisplay:10.37 W/m2 FEW
13:05 -10.6 °C -13.7 °C 1033.7 hPa Calm   1.6 km/h 78 % 0 mm WeatherDisplay:10.37 W/m2 FEW
13:10 -10.6 °C -13.7 °C 1033.4 hPa Calm   1.6 km/h 78 % 0 mm WeatherDisplay:10.37 W/m2 FEW
13:15 -10.6 °C -13.7 °C 1033.4 hPa Calm   3.2 km/h 78 % 0 mm WeatherDisplay:10.37 W/m2 FEW
13:20 -10.5 °C -13.6 °C 1033.4 hPa Calm     78 % 0 mm WeatherDisplay:10.37 W/m2 FEW
13:25 -10.5 °C -13.8 °C 1033.4 hPa Calm   3.2 km/h 77 % 0 mm WeatherDisplay:10.37 W/m2 FEW
13:30 -10.4 °C -13.7 °C 1033.1 hPa Calm   1.6 km/h 77 % 0 mm WeatherDisplay:10.37 W/m2 FEW
13:35 -10.4 °C -13.7 °C 1033.1 hPa Calm     77 % 0 mm WeatherDisplay:10.37 W/m2 FEW
13:40 -10.3 °C -13.6 °C 1033.1 hPa Calm     77 % 0 mm WeatherDisplay:10.37 W/m2 FEW
13:45 -10.2 °C -13.5 °C 1033.1 hPa Calm     77 % 0 mm WeatherDisplay:10.37 W/m2 FEW
13:50 -10.2 °C -13.7 °C 1033.1 hPa Calm   1.6 km/h 76 % 0 mm WeatherDisplay:10.37 W/m2 FEW
13:55 -10.2 °C -13.4 °C 1033.1 hPa Calm     77 % 0 mm WeatherDisplay:10.37 W/m2 FEW
14:00 -10.2 °C -13.6 °C 1032.7 hPa Calm     76 % 0 mm WeatherDisplay:10.37 W/m2 FEW
14:05 -10.2 °C -13.6 °C 1032.7 hPa Calm     76 % 0 mm WeatherDisplay:10.37 W/m2 FEW
14:10 -10.1 °C -13.6 °C 1032.7 hPa Calm     76 % 0 mm WeatherDisplay:10.37 W/m2 FEW
14:15 -10.1 °C -13.6 °C 1032.7 hPa Calm   1.6 km/h 76 % 0 mm WeatherDisplay:10.37 W/m2 FEW
14:20 -10.1 °C -13.6 °C 1032.7 hPa Calm   3.2 km/h 76 % 0 mm WeatherDisplay:10.37 W/m2 FEW
14:25 -10.1 °C -13.6 °C 1032.7 hPa Calm   1.6 km/h 76 % 0 mm WeatherDisplay:10.37 W/m2 FEW
14:30 -10.1 °C -13.6 °C 1032.7 hPa Calm     76 % 0 mm WeatherDisplay:10.37 W/m2 FEW
14:35 -10.1 °C -13.6 °C 1032.7 hPa Calm     76 % 0 mm WeatherDisplay:10.37 W/m2 FEW
14:40 -10.1 °C -13.6 °C 1032.7 hPa Calm     76 % 0 mm WeatherDisplay:10.37 W/m2 FEW
14:45 -10.1 °C -13.6 °C 1032.7 hPa Calm     76 % 0 mm WeatherDisplay:10.37 W/m2 FEW
14:50 -10.1 °C -13.6 °C 1032.7 hPa Calm     76 % 0 mm WeatherDisplay:10.37 W/m2 FEW
14:55 -10.1 °C -13.6 °C 1032.7 hPa Calm     76 % 0 mm WeatherDisplay:10.37 W/m2 FEW
15:00 -10.2 °C -13.6 °C 1032.7 hPa Calm   1.6 km/h 76 % 0 mm WeatherDisplay:10.37 W/m2 FEW
15:05 -10.1 °C -13.6 °C 1032.7 hPa Calm     76 % 0 mm WeatherDisplay:10.37 W/m2 FEW
15:10 -10.2 °C -13.6 °C 1032.7 hPa Calm     76 % 0 mm WeatherDisplay:10.37 W/m2 FEW
15:15 -10.2 °C -13.6 °C 1032.7 hPa Calm   4.8 km/h 76 % 0 mm WeatherDisplay:10.37 W/m2 FEW
15:20 -10.2 °C -13.7 °C 1032.7 hPa Calm   3.2 km/h 76 % 0 mm WeatherDisplay:10.37 W/m2 FEW
15:25 -10.2 °C -13.7 °C 1032.7 hPa Calm     76 % 0 mm WeatherDisplay:10.37 W/m2 FEW
15:30 -10.3 °C -13.7 °C 1032.7 hPa Calm     76 % 0 mm WeatherDisplay:10.37 W/m2 FEW
15:35 -10.3 °C -13.8 °C 1032.7 hPa Calm     76 % 0 mm WeatherDisplay:10.37 W/m2 FEW
15:40 -10.4 °C -13.8 °C 1032.7 hPa Calm     76 % 0 mm WeatherDisplay:10.37 W/m2 FEW
15:45 -10.4 °C -13.8 °C 1032.7 hPa Calm     76 % 0 mm WeatherDisplay:10.37 W/m2 FEW
15:50 -10.5 °C -13.9 °C 1032.7 hPa Calm     76 % 0 mm WeatherDisplay:10.37 W/m2 FEW
15:55 -10.6 °C -13.9 °C 1032.7 hPa Calm     76 % 0 mm WeatherDisplay:10.37 W/m2 FEW
16:00 -10.6 °C -13.9 °C 1032.7 hPa Calm   1.6 km/h 77 % 0 mm WeatherDisplay:10.37 W/m2 FEW
16:05 -10.7 °C -13.9 °C 1032.7 hPa Calm     77 % 0 mm WeatherDisplay:10.37 W/m2 FEW
16:10 -10.7 °C -13.9 °C 1032.7 hPa Calm     77 % 0 mm WeatherDisplay:10.37 W/m2 FEW
16:15 -10.8 °C -14 °C 1032.7 hPa Calm     77 % 0 mm WeatherDisplay:10.37 W/m2 FEW
16:20 -10.8 °C -14.1 °C 1032.7 hPa Calm     77 % 0 mm WeatherDisplay:10.37 W/m2 FEW
16:25 -10.8 °C -14.1 °C 1032.7 hPa Calm     77 % 0 mm WeatherDisplay:10.37 W/m2 FEW
16:30 -10.9 °C -14.2 °C 1032.7 hPa Calm     77 % 0 mm WeatherDisplay:10.37 W/m2 FEW
16:35 -11 °C -14.1 °C 1032.4 hPa Calm     78 % 0 mm WeatherDisplay:10.37 W/m2 FEW
16:40 -11 °C -14.1 °C 1032.4 hPa Calm     78 % 0 mm WeatherDisplay:10.37 W/m2 FEW
16:45 -11.1 °C -14.2 °C 1032.4 hPa Calm     78 % 0 mm WeatherDisplay:10.37 W/m2 FEW
16:50 -11.1 °C -14.2 °C 1032.4 hPa Calm     78 % 0 mm WeatherDisplay:10.37 W/m2 FEW
16:55 -11.2 °C -14.3 °C 1032.4 hPa Calm     78 % 0 mm WeatherDisplay:10.37 W/m2 FEW
17:00 -11.2 °C -14.3 °C 1032.4 hPa Calm     78 % 0 mm WeatherDisplay:10.37 W/m2 FEW
17:05 -11.3 °C -14.3 °C 1032.4 hPa Calm     78 % 0 mm WeatherDisplay:10.37 W/m2 FEW
17:10 -11.3 °C -14.3 °C 1032.4 hPa Calm     79 % 0 mm WeatherDisplay:10.37 W/m2 FEW
17:15 -11.4 °C -14.3 °C 1032.4 hPa Calm     79 % 0 mm WeatherDisplay:10.37 W/m2 FEW
17:20 -11.4 °C -14.3 °C 1032.4 hPa Calm     79 % 0 mm WeatherDisplay:10.37 W/m2 FEW
17:25 -11.5 °C -14.4 °C 1032.7 hPa Calm     79 % 0 mm WeatherDisplay:10.37 W/m2 FEW
17:30 -11.6 °C -14.4 °C 1032.4 hPa Calm     79 % 0 mm WeatherDisplay:10.37 W/m2 FEW
17:35 -11.6 °C -14.5 °C 1032.4 hPa Calm     79 % 0 mm WeatherDisplay:10.37 W/m2 FEW
17:40 -11.7 °C -14.4 °C 1032.4 hPa Calm     80 % 0 mm WeatherDisplay:10.37 W/m2 FEW
17:45 -11.7 °C -14.5 °C 1032.4 hPa Calm     80 % 0 mm WeatherDisplay:10.37 W/m2 FEW
17:50 -11.8 °C -14.6 °C 1032.4 hPa Calm     80 % 0 mm WeatherDisplay:10.37 W/m2 FEW
17:55 -11.8 °C -14.6 °C 1032.7 hPa Calm     80 % 0 mm WeatherDisplay:10.37 W/m2 FEW
18:00 -11.8 °C -14.6 °C 1032.7 hPa Calm     80 % 0 mm WeatherDisplay:10.37 W/m2 FEW
18:05 -11.9 °C -14.7 °C 1032.7 hPa Calm     80 % 0 mm WeatherDisplay:10.37 W/m2 FEW
18:10 -11.9 °C -14.7 °C 1032.7 hPa Calm     80 % 0 mm WeatherDisplay:10.37 W/m2 FEW
18:15 -12 °C -14.7 °C 1032.7 hPa Calm     80 % 0 mm WeatherDisplay:10.37 W/m2 FEW
18:20 -12 °C -14.6 °C 1032.7 hPa Calm     81 % 0 mm WeatherDisplay:10.37 W/m2 FEW
18:25 -12.1 °C -14.7 °C 1032.7 hPa Calm     81 % 0 mm WeatherDisplay:10.37 W/m2 FEW
18:30 -12.1 °C -14.7 °C 1032.7 hPa Calm     81 % 0 mm WeatherDisplay:10.37 W/m2 FEW
18:35 -12.1 °C -14.7 °C 1032.7 hPa Calm     81 % 0 mm WeatherDisplay:10.37 W/m2 FEW
18:40 -12.2 °C -14.8 °C 1032.7 hPa Calm     81 % 0 mm WeatherDisplay:10.37 W/m2 FEW
18:45 -12.2 °C -14.8 °C 1032.7 hPa Calm     81 % 0 mm WeatherDisplay:10.37 W/m2 FEW
18:50 -12.2 °C -14.8 °C 1032.7 hPa Calm     81 % 0 mm WeatherDisplay:10.37 W/m2 FEW
18:55 -12.3 °C -14.9 °C 1032.4 hPa Calm     81 % 0 mm WeatherDisplay:10.37 W/m2 FEW
19:00 -12.3 °C -14.9 °C 1032.4 hPa Calm     81 % 0 mm WeatherDisplay:10.37 W/m2 FEW
19:05 -12.4 °C -15.1 °C 1032.4 hPa Calm     81 % 0 mm WeatherDisplay:10.37 W/m2 FEW
19:10 -12.6 °C -15.2 °C 1032.4 hPa Calm     81 % 0 mm WeatherDisplay:10.37 W/m2 FEW
19:15 -12.7 °C -15.4 °C 1032.4 hPa Calm     80 % 0 mm WeatherDisplay:10.37 W/m2 FEW
19:20 -12.8 °C -15.6 °C 1032.4 hPa Calm     80 % 0 mm WeatherDisplay:10.37 W/m2 FEW
19:25 -13 °C -15.7 °C 1032.4 hPa Calm     80 % 0 mm WeatherDisplay:10.37 W/m2 FEW
19:30 -13.2 °C -15.9 °C 1032.4 hPa Calm     80 % 0 mm WeatherDisplay:10.37 W/m2 FEW
19:35 -13.3 °C -16 °C 1032.4 hPa Calm     80 % 0 mm WeatherDisplay:10.37 W/m2 FEW
19:40 -13.4 °C -16.3 °C 1032.4 hPa Calm     79 % 0 mm WeatherDisplay:10.37 W/m2 FEW
19:45 -13.6 °C -16.5 °C 1032.1 hPa Calm     79 % 0 mm WeatherDisplay:10.37 W/m2 FEW
19:50 -13.8 °C -16.7 °C 1032.1 hPa Calm     79 % 0 mm WeatherDisplay:10.37 W/m2 FEW
19:55 -14 °C -16.8 °C 1032.1 hPa Calm     79 % 0 mm WeatherDisplay:10.37 W/m2 FEW
20:00 -14.2 °C -17.1 °C 1032.1 hPa Calm     79 % 0 mm WeatherDisplay:10.37 W/m2 FEW
20:05 -14.4 °C -17.2 °C 1032.1 hPa Calm     79 % 0 mm WeatherDisplay:10.37 W/m2 FEW
20:10 -14.6 °C -17.4 °C 1032.1 hPa Calm     79 % 0 mm WeatherDisplay:10.37 W/m2 FEW
20:15 -14.8 °C -17.6 °C 1031.7 hPa Calm     79 % 0 mm WeatherDisplay:10.37 W/m2 FEW
20:20 -14.9 °C -17.8 °C 1031.7 hPa Calm     79 % 0 mm WeatherDisplay:10.37 W/m2 FEW
20:25 -15.1 °C -17.9 °C 1031.7 hPa Calm     79 % 0 mm WeatherDisplay:10.37 W/m2 FEW
20:30 -15.3 °C -18.2 °C 1031.7 hPa Calm     79 % 0 mm WeatherDisplay:10.37 W/m2 FEW
20:35 -15.6 °C -18.4 °C 1031.7 hPa Calm     79 % 0 mm WeatherDisplay:10.37 W/m2 FEW
20:40 -15.8 °C -18.4 °C 1031.7 hPa Calm     80 % 0 mm WeatherDisplay:10.37 W/m2 FEW
20:45 -16 °C -18.7 °C 1031.7 hPa Calm     80 % 0 mm WeatherDisplay:10.37 W/m2 FEW
20:50 -16.1 °C -18.8 °C 1031.7 hPa Calm     80 % 0 mm WeatherDisplay:10.37 W/m2 FEW
20:55 -16.3 °C -18.9 °C 1031.7 hPa Calm     80 % 0 mm WeatherDisplay:10.37 W/m2 FEW
21:00 -16.4 °C -18.9 °C 1031.7 hPa Calm     81 % 0 mm WeatherDisplay:10.37 W/m2 FEW
21:05 -16.6 °C -19.1 °C 1031.7 hPa Calm     81 % 0 mm WeatherDisplay:10.37 W/m2 FEW
21:10 -16.7 °C -19.2 °C 1031.7 hPa Calm     81 % 0 mm WeatherDisplay:10.37 W/m2 FEW
21:15 -16.8 °C -19.2 °C 1031.7 hPa Calm     82 % 0 mm WeatherDisplay:10.37 W/m2 FEW
21:20 -16.9 °C -19.3 °C 1031.7 hPa Calm     82 % 0 mm WeatherDisplay:10.37 W/m2 FEW
21:25 -17 °C -19.3 °C 1031.7 hPa Calm     82 % 0 mm WeatherDisplay:10.37 W/m2 FEW
21:30 -17.1 °C -19.4 °C 1031.7 hPa Calm     82 % 0 mm WeatherDisplay:10.37 W/m2 FEW
21:35 -17.2 °C -19.5 °C 1031.7 hPa Calm     82 % 0 mm WeatherDisplay:10.37 W/m2 FEW
21:40 -17.3 °C -19.6 °C 1031.7 hPa Calm     82 % 0 mm WeatherDisplay:10.37 W/m2 FEW
21:45 -17.3 °C -19.6 °C 1031.7 hPa Calm     83 % 0 mm WeatherDisplay:10.37 W/m2 FEW
21:50 -17.4 °C -19.6 °C 1031.7 hPa Calm     83 % 0 mm WeatherDisplay:10.37 W/m2 FEW
21:55 -17.5 °C -19.7 °C 1031.7 hPa Calm     83 % 0 mm WeatherDisplay:10.37 W/m2 FEW
22:00 -17.5 °C -19.7 °C 1031.7 hPa Calm     83 % 0 mm WeatherDisplay:10.37 W/m2 FEW
22:05 -17.5 °C -19.6 °C 1031.7 hPa Calm     84 % 0 mm WeatherDisplay:10.37 W/m2 FEW
22:10 -17.5 °C -19.6 °C 1031.7 hPa Calm     84 % 0 mm WeatherDisplay:10.37 W/m2 FEW
22:15 -17.6 °C -19.6 °C 1031.7 hPa Calm     84 % 0 mm WeatherDisplay:10.37 W/m2 FEW
22:20 -17.6 °C -19.6 °C 1031.4 hPa Calm     84 % 0 mm WeatherDisplay:10.37 W/m2 FEW
22:25 -17.6 °C -19.6 °C 1031.7 hPa Calm     84 % 0 mm WeatherDisplay:10.37 W/m2 FEW
22:30 -17.6 °C -19.6 °C 1031.7 hPa Calm     84 % 0 mm WeatherDisplay:10.37 W/m2 FEW
22:35 -17.6 °C -19.6 °C 1031.4 hPa Calm     84 % 0 mm WeatherDisplay:10.37 W/m2 FEW
22:40 -17.6 °C -19.7 °C 1031.4 hPa Calm     84 % 0 mm WeatherDisplay:10.37 W/m2 FEW
22:45 -17.6 °C -19.5 °C 1031.4 hPa Calm     85 % 0 mm WeatherDisplay:10.37 W/m2 FEW
22:50 -17.6 °C -19.5 °C 1031.4 hPa Calm     85 % 0 mm WeatherDisplay:10.37 W/m2 FEW
22:55 -17.6 °C -19.5 °C 1031 hPa Calm     85 % 0 mm WeatherDisplay:10.37 W/m2 FEW
23:00 -17.6 °C -19.6 °C 1031 hPa Calm     85 % 0 mm WeatherDisplay:10.37 W/m2 FEW
23:05 -17.7 °C -19.7 °C 1031 hPa Calm     84 % 0 mm WeatherDisplay:10.37 W/m2 FEW
23:10 -17.8 °C -19.8 °C 1031 hPa Calm     84 % 0 mm WeatherDisplay:10.37 W/m2 FEW
23:15 -17.8 °C -19.9 °C 1031 hPa Calm     84 % 0 mm WeatherDisplay:10.37 W/m2 FEW
23:20 -17.9 °C -19.9 °C 1031 hPa Calm     84 % 0 mm WeatherDisplay:10.37 W/m2 FEW
23:25 -17.9 °C -19.9 °C 1030.7 hPa Calm     84 % 0 mm WeatherDisplay:10.37 W/m2 FEW
23:30 -17.9 °C -20 °C 1030.7 hPa Calm     84 % 0 mm WeatherDisplay:10.37 W/m2 FEW
23:35 -18 °C -20.1 °C 1030.7 hPa Calm     84 % 0 mm WeatherDisplay:10.37 W/m2 FEW
23:40 -18.1 °C -20.1 °C 1030.7 hPa Calm     84 % 0 mm WeatherDisplay:10.37 W/m2 FEW
23:45 -18.1 °C -20.2 °C 1030.4 hPa Calm     84 % 0 mm WeatherDisplay:10.37 W/m2 FEW
23:50 -18.2 °C -20.3 °C 1030.4 hPa Calm     84 % 0 mm WeatherDisplay:10.37 W/m2 FEW
23:55 -18.3 °C -20.3 °C 1030.4 hPa Calm   1.6 km/h 84 % 0 mm WeatherDisplay:10.37 W/m2 FEW
Juneau County Weather
Compliments of Weather Underground - 3 mb